sensor_id;sensor_type;location;lat;lon;timestamp;P1;durP1;ratioP1;P2;durP2;ratioP2
9117;SDS011;4594;50.994;7.126;2023-04-30T00:02:23;25.53;;;18.07;;
9117;SDS011;4594;50.994;7.126;2023-04-30T00:04:49;25.43;;;18.03;;
9117;SDS011;4594;50.994;7.126;2023-04-30T00:07:15;23.27;;;17.37;;
9117;SDS011;4594;50.994;7.126;2023-04-30T00:09:41;24.43;;;17.63;;
9117;SDS011;4594;50.994;7.126;2023-04-30T00:12:06;26.07;;;17.80;;
9117;SDS011;4594;50.994;7.126;2023-04-30T00:14:32;26.67;;;17.40;;
9117;SDS011;4594;50.994;7.126;2023-04-30T00:16:58;26.07;;;16.53;;
9117;SDS011;4594;50.994;7.126;2023-04-30T00:19:24;23.73;;;16.47;;
9117;SDS011;4594;50.994;7.126;2023-04-30T00:21:49;26.33;;;17.83;;
9117;SDS011;4594;50.994;7.126;2023-04-30T00:24:15;25.70;;;17.00;;
9117;SDS011;4594;50.994;7.126;2023-04-30T00:26:41;21.10;;;15.70;;
9117;SDS011;4594;50.994;7.126;2023-04-30T00:29:07;25.20;;;16.43;;
9117;SDS011;4594;50.994;7.126;2023-04-30T00:31:34;23.33;;;16.17;;
9117;SDS011;4594;50.994;7.126;2023-04-30T00:34:00;21.70;;;14.67;;
9117;SDS011;4594;50.994;7.126;2023-04-30T00:36:26;23.30;;;16.17;;
9117;SDS011;4594;50.994;7.126;2023-04-30T00:38:51;22.57;;;15.73;;
9117;SDS011;4594;50.994;7.126;2023-04-30T00:41:17;21.03;;;15.03;;
9117;SDS011;4594;50.994;7.126;2023-04-30T01:20:31;15.17;;;10.63;;
9117;SDS011;4594;50.994;7.126;2023-04-30T01:28:59;17.83;;;10.80;;
9117;SDS011;4594;50.994;7.126;2023-04-30T01:31:27;12.33;;;10.37;;
9117;SDS011;4594;50.994;7.126;2023-04-30T01:33:53;12.53;;;9.10;;
9117;SDS011;4594;50.994;7.126;2023-04-30T01:36:28;12.00;;;9.50;;
9117;SDS011;4594;50.994;7.126;2023-04-30T01:39:34;13.87;;;9.63;;
9117;SDS011;4594;50.994;7.126;2023-04-30T01:42:58;12.50;;;9.87;;
9117;SDS011;4594;50.994;7.126;2023-04-30T01:51:07;11.80;;;10.10;;
9117;SDS011;4594;50.994;7.126;2023-04-30T01:53:43;14.57;;;11.03;;
9117;SDS011;4594;50.994;7.126;2023-04-30T01:56:26;13.63;;;10.20;;
9117;SDS011;4594;50.994;7.126;2023-04-30T01:59:01;13.23;;;10.17;;
9117;SDS011;4594;50.994;7.126;2023-04-30T02:01:29;13.60;;;10.10;;
9117;SDS011;4594;50.994;7.126;2023-04-30T02:03:57;13.33;;;9.93;;
9117;SDS011;4594;50.994;7.126;2023-04-30T02:06:23;13.90;;;9.93;;
9117;SDS011;4594;50.994;7.126;2023-04-30T02:08:54;15.03;;;9.27;;
9117;SDS011;4594;50.994;7.126;2023-04-30T02:11:21;13.53;;;9.77;;
9117;SDS011;4594;50.994;7.126;2023-04-30T02:13:49;16.27;;;10.37;;
9117;SDS011;4594;50.994;7.126;2023-04-30T02:16:15;12.57;;;10.50;;
9117;SDS011;4594;50.994;7.126;2023-04-30T02:18:41;15.43;;;10.40;;
9117;SDS011;4594;50.994;7.126;2023-04-30T02:21:07;12.37;;;9.90;;
9117;SDS011;4594;50.994;7.126;2023-04-30T02:23:32;13.57;;;10.67;;
9117;SDS011;4594;50.994;7.126;2023-04-30T02:25:58;15.90;;;10.60;;
9117;SDS011;4594;50.994;7.126;2023-04-30T02:28:24;14.17;;;10.53;;
9117;SDS011;4594;50.994;7.126;2023-04-30T02:30:49;14.57;;;11.37;;
9117;SDS011;4594;50.994;7.126;2023-04-30T02:33:15;16.63;;;11.00;;
9117;SDS011;4594;50.994;7.126;2023-04-30T02:35:41;15.23;;;11.40;;
9117;SDS011;4594;50.994;7.126;2023-04-30T02:38:06;15.93;;;11.17;;
9117;SDS011;4594;50.994;7.126;2023-04-30T02:40:32;14.30;;;11.30;;
9117;SDS011;4594;50.994;7.126;2023-04-30T02:42:58;14.87;;;11.23;;
9117;SDS011;4594;50.994;7.126;2023-04-30T02:45:25;16.93;;;11.33;;
9117;SDS011;4594;50.994;7.126;2023-04-30T02:47:51;14.67;;;11.73;;
9117;SDS011;4594;50.994;7.126;2023-04-30T02:50:16;15.63;;;11.67;;
9117;SDS011;4594;50.994;7.126;2023-04-30T02:52:43;14.03;;;11.23;;
9117;SDS011;4594;50.994;7.126;2023-04-30T02:55:11;14.53;;;11.07;;
9117;SDS011;4594;50.994;7.126;2023-04-30T02:57:36;16.30;;;10.87;;
9117;SDS011;4594;50.994;7.126;2023-04-30T03:00:03;14.80;;;11.60;;
9117;SDS011;4594;50.994;7.126;2023-04-30T03:02:29;16.27;;;11.20;;
9117;SDS011;4594;50.994;7.126;2023-04-30T03:04:55;17.43;;;11.57;;
9117;SDS011;4594;50.994;7.126;2023-04-30T03:07:21;15.70;;;12.47;;
9117;SDS011;4594;50.994;7.126;2023-04-30T03:09:46;13.83;;;10.70;;
9117;SDS011;4594;50.994;7.126;2023-04-30T03:12:12;12.77;;;10.33;;
9117;SDS011;4594;50.994;7.126;2023-04-30T03:14:41;14.67;;;10.47;;
9117;SDS011;4594;50.994;7.126;2023-04-30T03:17:06;12.77;;;10.03;;
9117;SDS011;4594;50.994;7.126;2023-04-30T03:19:32;14.60;;;10.60;;
9117;SDS011;4594;50.994;7.126;2023-04-30T03:21:58;15.37;;;10.50;;
9117;SDS011;4594;50.994;7.126;2023-04-30T03:24:23;13.40;;;10.30;;
9117;SDS011;4594;50.994;7.126;2023-04-30T03:26:49;12.30;;;9.40;;
9117;SDS011;4594;50.994;7.126;2023-04-30T03:29:15;13.87;;;10.20;;
9117;SDS011;4594;50.994;7.126;2023-04-30T03:31:41;13.90;;;10.27;;
9117;SDS011;4594;50.994;7.126;2023-04-30T03:34:07;14.87;;;9.57;;
9117;SDS011;4594;50.994;7.126;2023-04-30T03:36:33;16.20;;;10.20;;
9117;SDS011;4594;50.994;7.126;2023-04-30T03:39:00;16.40;;;10.43;;
9117;SDS011;4594;50.994;7.126;2023-04-30T03:41:26;13.97;;;9.77;;
9117;SDS011;4594;50.994;7.126;2023-04-30T03:43:52;11.27;;;9.77;;
9117;SDS011;4594;50.994;7.126;2023-04-30T03:46:18;12.43;;;10.03;;
9117;SDS011;4594;50.994;7.126;2023-04-30T03:48:44;14.77;;;9.97;;
9117;SDS011;4594;50.994;7.126;2023-04-30T03:51:10;13.23;;;10.30;;
9117;SDS011;4594;50.994;7.126;2023-04-30T03:53:36;11.07;;;9.00;;
9117;SDS011;4594;50.994;7.126;2023-04-30T03:56:01;12.47;;;10.03;;
9117;SDS011;4594;50.994;7.126;2023-04-30T03:58:29;15.30;;;10.30;;
9117;SDS011;4594;50.994;7.126;2023-04-30T04:00:55;11.87;;;9.87;;
9117;SDS011;4594;50.994;7.126;2023-04-30T04:03:20;15.13;;;9.83;;
9117;SDS011;4594;50.994;7.126;2023-04-30T04:05:47;18.07;;;10.97;;
9117;SDS011;4594;50.994;7.126;2023-04-30T04:08:13;14.30;;;11.23;;
9117;SDS011;4594;50.994;7.126;2023-04-30T04:10:38;14.40;;;11.13;;
9117;SDS011;4594;50.994;7.126;2023-04-30T04:13:05;15.73;;;11.40;;
9117;SDS011;4594;50.994;7.126;2023-04-30T04:15:31;16.47;;;11.20;;
9117;SDS011;4594;50.994;7.126;2023-04-30T04:17:58;13.77;;;10.60;;
9117;SDS011;4594;50.994;7.126;2023-04-30T04:20:23;18.83;;;11.63;;
9117;SDS011;4594;50.994;7.126;2023-04-30T04:22:49;14.63;;;11.03;;
9117;SDS011;4594;50.994;7.126;2023-04-30T04:25:15;15.30;;;11.53;;
9117;SDS011;4594;50.994;7.126;2023-04-30T04:27:42;16.97;;;12.13;;
9117;SDS011;4594;50.994;7.126;2023-04-30T04:30:08;16.43;;;12.10;;
9117;SDS011;4594;50.994;7.126;2023-04-30T04:32:34;15.77;;;11.63;;
9117;SDS011;4594;50.994;7.126;2023-04-30T04:35:10;12.73;;;10.20;;
9117;SDS011;4594;50.994;7.126;2023-04-30T04:37:38;14.70;;;10.80;;
9117;SDS011;4594;50.994;7.126;2023-04-30T04:40:04;16.17;;;11.73;;
9117;SDS011;4594;50.994;7.126;2023-04-30T04:42:30;13.33;;;10.10;;
9117;SDS011;4594;50.994;7.126;2023-04-30T04:44:56;15.67;;;11.50;;
9117;SDS011;4594;50.994;7.126;2023-04-30T04:47:22;14.20;;;10.87;;
9117;SDS011;4594;50.994;7.126;2023-04-30T04:49:48;15.33;;;11.03;;
9117;SDS011;4594;50.994;7.126;2023-04-30T04:52:14;16.80;;;11.53;;
9117;SDS011;4594;50.994;7.126;2023-04-30T04:54:40;18.23;;;10.27;;
9117;SDS011;4594;50.994;7.126;2023-04-30T04:57:05;15.27;;;11.50;;
9117;SDS011;4594;50.994;7.126;2023-04-30T04:59:31;14.87;;;11.43;;
9117;SDS011;4594;50.994;7.126;2023-04-30T05:01:56;14.63;;;10.53;;
9117;SDS011;4594;50.994;7.126;2023-04-30T05:04:22;15.17;;;10.90;;
9117;SDS011;4594;50.994;7.126;2023-04-30T05:06:48;15.43;;;10.80;;
9117;SDS011;4594;50.994;7.126;2023-04-30T05:09:13;11.37;;;10.17;;
9117;SDS011;4594;50.994;7.126;2023-04-30T05:11:39;14.13;;;11.33;;
9117;SDS011;4594;50.994;7.126;2023-04-30T05:14:05;14.77;;;11.27;;
9117;SDS011;4594;50.994;7.126;2023-04-30T05:16:31;15.17;;;10.63;;
9117;SDS011;4594;50.994;7.126;2023-04-30T05:18:57;15.60;;;10.83;;
9117;SDS011;4594;50.994;7.126;2023-04-30T05:21:23;15.43;;;11.43;;
9117;SDS011;4594;50.994;7.126;2023-04-30T05:23:53;15.90;;;11.20;;
9117;SDS011;4594;50.994;7.126;2023-04-30T05:26:19;15.53;;;11.33;;
9117;SDS011;4594;50.994;7.126;2023-04-30T05:28:45;15.13;;;11.53;;
9117;SDS011;4594;50.994;7.126;2023-04-30T05:31:10;14.87;;;11.63;;
9117;SDS011;4594;50.994;7.126;2023-04-30T05:33:36;15.60;;;11.20;;
9117;SDS011;4594;50.994;7.126;2023-04-30T05:36:02;16.90;;;13.10;;
9117;SDS011;4594;50.994;7.126;2023-04-30T05:38:28;15.60;;;10.80;;
9117;SDS011;4594;50.994;7.126;2023-04-30T05:40:53;20.97;;;11.80;;
9117;SDS011;4594;50.994;7.126;2023-04-30T05:43:19;16.03;;;11.10;;
9117;SDS011;4594;50.994;7.126;2023-04-30T05:45:45;14.13;;;10.67;;
9117;SDS011;4594;50.994;7.126;2023-04-30T05:48:10;11.30;;;9.90;;
9117;SDS011;4594;50.994;7.126;2023-04-30T05:50:36;12.70;;;9.87;;
9117;SDS011;4594;50.994;7.126;2023-04-30T05:53:02;13.53;;;10.33;;
9117;SDS011;4594;50.994;7.126;2023-04-30T05:55:27;15.23;;;9.70;;
9117;SDS011;4594;50.994;7.126;2023-04-30T05:57:53;11.43;;;8.70;;
9117;SDS011;4594;50.994;7.126;2023-04-30T06:00:19;10.50;;;8.77;;
9117;SDS011;4594;50.994;7.126;2023-04-30T06:02:44;9.20;;;8.20;;
9117;SDS011;4594;50.994;7.126;2023-04-30T06:05:10;9.57;;;8.03;;
9117;SDS011;4594;50.994;7.126;2023-04-30T06:07:36;10.47;;;8.80;;
9117;SDS011;4594;50.994;7.126;2023-04-30T06:10:01;9.03;;;8.07;;
9117;SDS011;4594;50.994;7.126;2023-04-30T06:12:28;8.73;;;7.60;;
9117;SDS011;4594;50.994;7.126;2023-04-30T06:14:54;8.30;;;7.23;;
9117;SDS011;4594;50.994;7.126;2023-04-30T06:17:19;11.53;;;8.43;;
9117;SDS011;4594;50.994;7.126;2023-04-30T06:19:45;8.50;;;7.70;;
9117;SDS011;4594;50.994;7.126;2023-04-30T06:22:11;12.67;;;7.87;;
9117;SDS011;4594;50.994;7.126;2023-04-30T06:24:37;7.80;;;7.00;;
9117;SDS011;4594;50.994;7.126;2023-04-30T06:27:02;8.10;;;6.60;;
9117;SDS011;4594;50.994;7.126;2023-04-30T06:29:28;7.20;;;6.50;;
9117;SDS011;4594;50.994;7.126;2023-04-30T06:31:54;8.67;;;6.90;;
9117;SDS011;4594;50.994;7.126;2023-04-30T06:34:20;10.40;;;6.47;;
9117;SDS011;4594;50.994;7.126;2023-04-30T06:36:46;6.67;;;6.00;;
9117;SDS011;4594;50.994;7.126;2023-04-30T06:39:13;7.60;;;5.90;;
9117;SDS011;4594;50.994;7.126;2023-04-30T06:41:40;7.43;;;6.40;;
9117;SDS011;4594;50.994;7.126;2023-04-30T06:44:07;7.37;;;6.30;;
9117;SDS011;4594;50.994;7.126;2023-04-30T06:46:33;6.27;;;5.67;;
9117;SDS011;4594;50.994;7.126;2023-04-30T06:48:59;6.60;;;6.00;;
9117;SDS011;4594;50.994;7.126;2023-04-30T06:51:24;6.17;;;5.60;;
9117;SDS011;4594;50.994;7.126;2023-04-30T06:53:50;9.07;;;6.47;;
9117;SDS011;4594;50.994;7.126;2023-04-30T06:56:16;5.93;;;5.33;;
9117;SDS011;4594;50.994;7.126;2023-04-30T06:58:42;6.03;;;5.43;;
9117;SDS011;4594;50.994;7.126;2023-04-30T07:01:09;6.27;;;5.67;;
9117;SDS011;4594;50.994;7.126;2023-04-30T07:03:34;5.87;;;5.37;;
9117;SDS011;4594;50.994;7.126;2023-04-30T07:06:00;6.40;;;5.63;;
9117;SDS011;4594;50.994;7.126;2023-04-30T07:08:26;5.67;;;5.07;;
9117;SDS011;4594;50.994;7.126;2023-04-30T07:10:52;13.83;;;5.50;;
9117;SDS011;4594;50.994;7.126;2023-04-30T07:13:17;5.47;;;5.00;;
9117;SDS011;4594;50.994;7.126;2023-04-30T07:15:43;4.90;;;4.50;;
9117;SDS011;4594;50.994;7.126;2023-04-30T07:18:09;6.70;;;5.17;;
9117;SDS011;4594;50.994;7.126;2023-04-30T07:20:35;4.70;;;4.30;;
9117;SDS011;4594;50.994;7.126;2023-04-30T07:23:01;6.33;;;4.23;;
9117;SDS011;4594;50.994;7.126;2023-04-30T07:25:26;4.87;;;4.37;;
9117;SDS011;4594;50.994;7.126;2023-04-30T07:27:52;4.17;;;3.83;;
9117;SDS011;4594;50.994;7.126;2023-04-30T07:30:19;3.83;;;3.53;;
9117;SDS011;4594;50.994;7.126;2023-04-30T07:32:46;5.47;;;4.37;;
9117;SDS011;4594;50.994;7.126;2023-04-30T07:35:12;4.63;;;4.23;;
9117;SDS011;4594;50.994;7.126;2023-04-30T07:37:38;5.70;;;3.67;;
9117;SDS011;4594;50.994;7.126;2023-04-30T07:40:05;5.23;;;3.47;;
9117;SDS011;4594;50.994;7.126;2023-04-30T07:42:36;4.03;;;3.33;;
9117;SDS011;4594;50.994;7.126;2023-04-30T07:45:09;4.97;;;3.33;;
9117;SDS011;4594;50.994;7.126;2023-04-30T07:47:37;3.00;;;2.80;;
9117;SDS011;4594;50.994;7.126;2023-04-30T07:50:02;3.93;;;2.90;;
9117;SDS011;4594;50.994;7.126;2023-04-30T07:52:28;2.90;;;2.70;;
9117;SDS011;4594;50.994;7.126;2023-04-30T07:54:54;2.97;;;2.67;;
9117;SDS011;4594;50.994;7.126;2023-04-30T07:57:20;2.53;;;2.33;;
9117;SDS011;4594;50.994;7.126;2023-04-30T07:59:46;2.43;;;2.33;;
9117;SDS011;4594;50.994;7.126;2023-04-30T08:02:11;3.63;;;2.47;;
9117;SDS011;4594;50.994;7.126;2023-04-30T08:04:37;3.00;;;2.53;;
9117;SDS011;4594;50.994;7.126;2023-04-30T08:07:03;2.57;;;2.47;;
9117;SDS011;4594;50.994;7.126;2023-04-30T08:09:29;3.60;;;2.00;;
9117;SDS011;4594;50.994;7.126;2023-04-30T08:11:55;3.00;;;2.00;;
9117;SDS011;4594;50.994;7.126;2023-04-30T08:14:20;2.93;;;1.93;;
9117;SDS011;4594;50.994;7.126;2023-04-30T08:16:46;1.93;;;1.83;;
9117;SDS011;4594;50.994;7.126;2023-04-30T08:19:12;1.73;;;1.63;;
9117;SDS011;4594;50.994;7.126;2023-04-30T08:21:38;1.50;;;1.50;;
9117;SDS011;4594;50.994;7.126;2023-04-30T08:24:03;3.33;;;1.63;;
9117;SDS011;4594;50.994;7.126;2023-04-30T08:26:29;1.63;;;1.53;;
9117;SDS011;4594;50.994;7.126;2023-04-30T08:28:55;1.67;;;1.53;;
9117;SDS011;4594;50.994;7.126;2023-04-30T08:31:21;1.57;;;1.47;;
9117;SDS011;4594;50.994;7.126;2023-04-30T08:33:47;1.87;;;1.50;;
9117;SDS011;4594;50.994;7.126;2023-04-30T08:36:12;2.20;;;1.50;;
9117;SDS011;4594;50.994;7.126;2023-04-30T08:38:38;1.20;;;1.10;;
9117;SDS011;4594;50.994;7.126;2023-04-30T08:41:07;1.10;;;1.10;;
9117;SDS011;4594;50.994;7.126;2023-04-30T08:43:37;1.47;;;1.13;;
9117;SDS011;4594;50.994;7.126;2023-04-30T08:46:06;1.70;;;1.10;;
9117;SDS011;4594;50.994;7.126;2023-04-30T08:48:32;1.33;;;1.33;;
9117;SDS011;4594;50.994;7.126;2023-04-30T08:51:02;1.33;;;1.23;;
9117;SDS011;4594;50.994;7.126;2023-04-30T08:53:28;1.57;;;1.53;;
9117;SDS011;4594;50.994;7.126;2023-04-30T08:55:58;1.17;;;1.17;;
9117;SDS011;4594;50.994;7.126;2023-04-30T08:58:24;1.20;;;1.20;;
9117;SDS011;4594;50.994;7.126;2023-04-30T09:00:50;1.20;;;1.20;;
9117;SDS011;4594;50.994;7.126;2023-04-30T09:03:15;0.70;;;0.70;;
9117;SDS011;4594;50.994;7.126;2023-04-30T09:05:41;0.87;;;0.87;;
9117;SDS011;4594;50.994;7.126;2023-04-30T09:08:07;1.17;;;1.17;;
9117;SDS011;4594;50.994;7.126;2023-04-30T09:10:33;0.97;;;0.97;;
9117;SDS011;4594;50.994;7.126;2023-04-30T09:15:30;0.83;;;0.83;;
9117;SDS011;4594;50.994;7.126;2023-04-30T09:20:34;1.13;;;1.00;;
9117;SDS011;4594;50.994;7.126;2023-04-30T09:23:06;1.23;;;1.13;;
9117;SDS011;4594;50.994;7.126;2023-04-30T09:25:40;1.17;;;0.87;;
9117;SDS011;4594;50.994;7.126;2023-04-30T09:30:37;0.90;;;0.90;;
9117;SDS011;4594;50.994;7.126;2023-04-30T09:33:06;0.80;;;0.80;;
9117;SDS011;4594;50.994;7.126;2023-04-30T09:35:34;1.23;;;1.23;;
9117;SDS011;4594;50.994;7.126;2023-04-30T09:38:03;1.77;;;0.87;;
9117;SDS011;4594;50.994;7.126;2023-04-30T09:40:48;0.80;;;0.80;;
9117;SDS011;4594;50.994;7.126;2023-04-30T09:43:14;1.00;;;1.00;;
9117;SDS011;4594;50.994;7.126;2023-04-30T09:45:43;0.97;;;0.97;;
9117;SDS011;4594;50.994;7.126;2023-04-30T09:48:20;3.93;;;0.90;;
9117;SDS011;4594;50.994;7.126;2023-04-30T09:50:47;0.60;;;0.60;;
9117;SDS011;4594;50.994;7.126;2023-04-30T09:53:14;0.97;;;0.90;;
9117;SDS011;4594;50.994;7.126;2023-04-30T09:55:45;0.60;;;0.60;;
9117;SDS011;4594;50.994;7.126;2023-04-30T09:58:13;0.80;;;0.70;;
9117;SDS011;4594;50.994;7.126;2023-04-30T10:00:46;0.80;;;0.80;;
9117;SDS011;4594;50.994;7.126;2023-04-30T10:03:16;1.07;;;0.87;;
9117;SDS011;4594;50.994;7.126;2023-04-30T10:05:43;0.60;;;0.60;;
9117;SDS011;4594;50.994;7.126;2023-04-30T10:08:18;0.90;;;0.90;;
9117;SDS011;4594;50.994;7.126;2023-04-30T10:10:56;0.77;;;0.70;;
9117;SDS011;4594;50.994;7.126;2023-04-30T10:13:30;0.80;;;0.80;;
9117;SDS011;4594;50.994;7.126;2023-04-30T10:16:08;0.80;;;0.80;;
9117;SDS011;4594;50.994;7.126;2023-04-30T10:18:44;0.90;;;0.90;;
9117;SDS011;4594;50.994;7.126;2023-04-30T10:21:15;1.30;;;0.80;;
9117;SDS011;4594;50.994;7.126;2023-04-30T10:23:46;0.80;;;0.80;;
9117;SDS011;4594;50.994;7.126;2023-04-30T10:26:13;0.80;;;0.80;;
9117;SDS011;4594;50.994;7.126;2023-04-30T10:28:41;0.90;;;0.90;;
9117;SDS011;4594;50.994;7.126;2023-04-30T10:31:07;1.37;;;1.17;;
9117;SDS011;4594;50.994;7.126;2023-04-30T10:33:43;0.83;;;0.70;;
9117;SDS011;4594;50.994;7.126;2023-04-30T10:36:28;0.77;;;0.77;;
9117;SDS011;4594;50.994;7.126;2023-04-30T10:39:12;0.73;;;0.73;;
9117;SDS011;4594;50.994;7.126;2023-04-30T10:41:45;0.90;;;0.90;;
9117;SDS011;4594;50.994;7.126;2023-04-30T10:44:13;0.80;;;0.80;;
9117;SDS011;4594;50.994;7.126;2023-04-30T10:46:40;0.50;;;0.50;;
9117;SDS011;4594;50.994;7.126;2023-04-30T10:49:06;0.60;;;0.60;;
9117;SDS011;4594;50.994;7.126;2023-04-30T10:51:48;0.90;;;0.77;;
9117;SDS011;4594;50.994;7.126;2023-04-30T10:54:35;0.60;;;0.60;;
9117;SDS011;4594;50.994;7.126;2023-04-30T10:57:11;0.50;;;0.50;;
9117;SDS011;4594;50.994;7.126;2023-04-30T10:59:42;0.60;;;0.60;;
9117;SDS011;4594;50.994;7.126;2023-04-30T11:02:18;0.50;;;0.50;;
9117;SDS011;4594;50.994;7.126;2023-04-30T11:07:31;0.50;;;0.50;;
9117;SDS011;4594;50.994;7.126;2023-04-30T11:09:59;0.50;;;0.50;;
9117;SDS011;4594;50.994;7.126;2023-04-30T11:12:28;0.30;;;0.30;;
9117;SDS011;4594;50.994;7.126;2023-04-30T11:15:04;0.43;;;0.40;;
9117;SDS011;4594;50.994;7.126;2023-04-30T11:17:38;0.40;;;0.40;;
9117;SDS011;4594;50.994;7.126;2023-04-30T11:20:05;2.33;;;0.53;;
9117;SDS011;4594;50.994;7.126;2023-04-30T11:22:32;0.40;;;0.40;;
9117;SDS011;4594;50.994;7.126;2023-04-30T11:25:04;0.50;;;0.50;;
9117;SDS011;4594;50.994;7.126;2023-04-30T11:27:34;0.50;;;0.50;;
9117;SDS011;4594;50.994;7.126;2023-04-30T11:30:11;1.33;;;0.43;;
9117;SDS011;4594;50.994;7.126;2023-04-30T11:32:45;0.60;;;0.60;;
9117;SDS011;4594;50.994;7.126;2023-04-30T11:35:16;0.20;;;0.20;;
9117;SDS011;4594;50.994;7.126;2023-04-30T11:37:43;0.50;;;0.40;;
9117;SDS011;4594;50.994;7.126;2023-04-30T11:40:10;0.50;;;0.50;;
9117;SDS011;4594;50.994;7.126;2023-04-30T11:42:41;0.50;;;0.50;;
9117;SDS011;4594;50.994;7.126;2023-04-30T11:45:10;0.37;;;0.37;;
9117;SDS011;4594;50.994;7.126;2023-04-30T11:47:48;0.40;;;0.40;;
9117;SDS011;4594;50.994;7.126;2023-04-30T11:50:17;1.43;;;0.60;;
9117;SDS011;4594;50.994;7.126;2023-04-30T11:52:51;0.60;;;0.60;;
9117;SDS011;4594;50.994;7.126;2023-04-30T11:55:19;0.70;;;0.70;;
9117;SDS011;4594;50.994;7.126;2023-04-30T11:57:56;0.50;;;0.50;;
9117;SDS011;4594;50.994;7.126;2023-04-30T12:00:27;0.60;;;0.60;;
9117;SDS011;4594;50.994;7.126;2023-04-30T12:02:55;4.53;;;0.60;;
9117;SDS011;4594;50.994;7.126;2023-04-30T12:05:25;0.80;;;0.80;;
9117;SDS011;4594;50.994;7.126;2023-04-30T12:07:55;0.70;;;0.70;;
9117;SDS011;4594;50.994;7.126;2023-04-30T12:10:29;0.70;;;0.70;;
9117;SDS011;4594;50.994;7.126;2023-04-30T12:12:56;0.60;;;0.60;;
9117;SDS011;4594;50.994;7.126;2023-04-30T12:15:22;0.97;;;0.77;;
9117;SDS011;4594;50.994;7.126;2023-04-30T12:17:56;0.73;;;0.70;;
9117;SDS011;4594;50.994;7.126;2023-04-30T12:20:27;0.80;;;0.80;;
9117;SDS011;4594;50.994;7.126;2023-04-30T12:22:56;0.90;;;0.90;;
9117;SDS011;4594;50.994;7.126;2023-04-30T12:25:22;0.80;;;0.80;;
9117;SDS011;4594;50.994;7.126;2023-04-30T12:27:51;0.63;;;0.63;;
9117;SDS011;4594;50.994;7.126;2023-04-30T12:30:18;0.93;;;0.80;;
9117;SDS011;4594;50.994;7.126;2023-04-30T12:32:56;0.70;;;0.70;;
9117;SDS011;4594;50.994;7.126;2023-04-30T12:35:23;1.40;;;0.80;;
9117;SDS011;4594;50.994;7.126;2023-04-30T12:37:53;0.80;;;0.80;;
9117;SDS011;4594;50.994;7.126;2023-04-30T12:40:29;0.80;;;0.80;;
9117;SDS011;4594;50.994;7.126;2023-04-30T12:43:03;0.80;;;0.80;;
9117;SDS011;4594;50.994;7.126;2023-04-30T12:48:17;0.80;;;0.80;;
9117;SDS011;4594;50.994;7.126;2023-04-30T12:50:57;0.70;;;0.70;;
9117;SDS011;4594;50.994;7.126;2023-04-30T12:53:25;0.70;;;0.70;;
9117;SDS011;4594;50.994;7.126;2023-04-30T12:56:12;0.80;;;0.80;;
9117;SDS011;4594;50.994;7.126;2023-04-30T12:58:45;0.80;;;0.80;;
9117;SDS011;4594;50.994;7.126;2023-04-30T13:01:19;0.80;;;0.80;;
9117;SDS011;4594;50.994;7.126;2023-04-30T13:03:49;0.70;;;0.70;;
9117;SDS011;4594;50.994;7.126;2023-04-30T13:06:17;1.00;;;1.00;;
9117;SDS011;4594;50.994;7.126;2023-04-30T13:08:43;0.90;;;0.90;;
9117;SDS011;4594;50.994;7.126;2023-04-30T13:11:09;0.80;;;0.80;;
9117;SDS011;4594;50.994;7.126;2023-04-30T13:13:35;0.80;;;0.80;;
9117;SDS011;4594;50.994;7.126;2023-04-30T13:16:01;0.90;;;0.90;;
9117;SDS011;4594;50.994;7.126;2023-04-30T13:18:26;0.87;;;0.80;;
9117;SDS011;4594;50.994;7.126;2023-04-30T13:20:52;1.30;;;1.30;;
9117;SDS011;4594;50.994;7.126;2023-04-30T13:23:18;0.93;;;0.93;;
9117;SDS011;4594;50.994;7.126;2023-04-30T13:25:44;1.10;;;1.10;;
9117;SDS011;4594;50.994;7.126;2023-04-30T13:28:10;1.23;;;1.23;;
9117;SDS011;4594;50.994;7.126;2023-04-30T13:30:36;1.20;;;1.20;;
9117;SDS011;4594;50.994;7.126;2023-04-30T13:33:01;1.10;;;1.10;;
9117;SDS011;4594;50.994;7.126;2023-04-30T13:35:27;1.60;;;1.43;;
9117;SDS011;4594;50.994;7.126;2023-04-30T13:37:53;0.90;;;0.90;;
9117;SDS011;4594;50.994;7.126;2023-04-30T13:40:20;1.00;;;1.00;;
9117;SDS011;4594;50.994;7.126;2023-04-30T13:42:46;0.90;;;0.90;;
9117;SDS011;4594;50.994;7.126;2023-04-30T13:45:13;0.77;;;0.77;;
9117;SDS011;4594;50.994;7.126;2023-04-30T13:47:39;0.97;;;0.90;;
9117;SDS011;4594;50.994;7.126;2023-04-30T13:50:05;0.90;;;0.90;;
9117;SDS011;4594;50.994;7.126;2023-04-30T13:52:32;0.90;;;0.90;;
9117;SDS011;4594;50.994;7.126;2023-04-30T13:54:58;0.83;;;0.83;;
9117;SDS011;4594;50.994;7.126;2023-04-30T13:57:24;0.90;;;0.90;;
9117;SDS011;4594;50.994;7.126;2023-04-30T13:59:50;0.80;;;0.80;;
9117;SDS011;4594;50.994;7.126;2023-04-30T14:02:16;1.00;;;1.00;;
9117;SDS011;4594;50.994;7.126;2023-04-30T14:04:42;0.97;;;0.97;;
9117;SDS011;4594;50.994;7.126;2023-04-30T14:07:08;0.93;;;0.93;;
9117;SDS011;4594;50.994;7.126;2023-04-30T14:09:33;1.00;;;0.90;;
9117;SDS011;4594;50.994;7.126;2023-04-30T14:12:00;0.97;;;0.97;;
9117;SDS011;4594;50.994;7.126;2023-04-30T14:14:26;0.87;;;0.80;;
9117;SDS011;4594;50.994;7.126;2023-04-30T14:16:52;1.90;;;0.87;;
9117;SDS011;4594;50.994;7.126;2023-04-30T14:19:19;0.90;;;0.90;;
9117;SDS011;4594;50.994;7.126;2023-04-30T14:21:46;0.90;;;0.90;;
9117;SDS011;4594;50.994;7.126;2023-04-30T14:24:12;0.90;;;0.90;;
9117;SDS011;4594;50.994;7.126;2023-04-30T14:26:40;0.87;;;0.87;;
9117;SDS011;4594;50.994;7.126;2023-04-30T14:29:06;1.00;;;1.00;;
9117;SDS011;4594;50.994;7.126;2023-04-30T14:31:33;0.97;;;0.97;;
9117;SDS011;4594;50.994;7.126;2023-04-30T14:33:58;0.90;;;0.90;;
9117;SDS011;4594;50.994;7.126;2023-04-30T14:36:25;1.00;;;1.00;;
9117;SDS011;4594;50.994;7.126;2023-04-30T14:38:51;0.80;;;0.80;;
9117;SDS011;4594;50.994;7.126;2023-04-30T14:41:17;0.90;;;0.90;;
9117;SDS011;4594;50.994;7.126;2023-04-30T14:43:43;0.90;;;0.90;;
9117;SDS011;4594;50.994;7.126;2023-04-30T14:46:09;0.90;;;0.90;;
9117;SDS011;4594;50.994;7.126;2023-04-30T14:48:35;0.90;;;0.90;;
9117;SDS011;4594;50.994;7.126;2023-04-30T14:51:01;0.90;;;0.90;;
9117;SDS011;4594;50.994;7.126;2023-04-30T14:53:28;0.80;;;0.80;;
9117;SDS011;4594;50.994;7.126;2023-04-30T14:55:54;0.90;;;0.90;;
9117;SDS011;4594;50.994;7.126;2023-04-30T14:58:20;0.90;;;0.90;;
9117;SDS011;4594;50.994;7.126;2023-04-30T15:00:46;0.90;;;0.90;;
9117;SDS011;4594;50.994;7.126;2023-04-30T15:03:12;1.00;;;0.97;;
9117;SDS011;4594;50.994;7.126;2023-04-30T15:05:39;1.00;;;1.00;;
9117;SDS011;4594;50.994;7.126;2023-04-30T15:08:05;1.80;;;0.90;;
9117;SDS011;4594;50.994;7.126;2023-04-30T15:10:31;1.20;;;1.10;;
9117;SDS011;4594;50.994;7.126;2023-04-30T15:12:57;1.20;;;1.20;;
9117;SDS011;4594;50.994;7.126;2023-04-30T15:15:22;1.10;;;1.00;;
9117;SDS011;4594;50.994;7.126;2023-04-30T15:17:53;0.90;;;0.90;;
9117;SDS011;4594;50.994;7.126;2023-04-30T15:20:25;1.20;;;1.10;;
9117;SDS011;4594;50.994;7.126;2023-04-30T15:22:51;1.00;;;1.00;;
9117;SDS011;4594;50.994;7.126;2023-04-30T15:25:19;0.90;;;0.90;;
9117;SDS011;4594;50.994;7.126;2023-04-30T15:27:47;1.03;;;1.03;;
9117;SDS011;4594;50.994;7.126;2023-04-30T15:30:15;2.43;;;1.10;;
9117;SDS011;4594;50.994;7.126;2023-04-30T15:32:41;1.10;;;1.10;;
9117;SDS011;4594;50.994;7.126;2023-04-30T15:35:07;1.07;;;1.07;;
9117;SDS011;4594;50.994;7.126;2023-04-30T15:37:34;1.00;;;1.00;;
9117;SDS011;4594;50.994;7.126;2023-04-30T15:40:00;1.10;;;1.10;;
9117;SDS011;4594;50.994;7.126;2023-04-30T15:42:28;2.33;;;1.10;;
9117;SDS011;4594;50.994;7.126;2023-04-30T15:44:55;1.20;;;1.20;;
9117;SDS011;4594;50.994;7.126;2023-04-30T15:47:20;1.50;;;1.40;;
9117;SDS011;4594;50.994;7.126;2023-04-30T15:49:47;1.30;;;1.20;;
9117;SDS011;4594;50.994;7.126;2023-04-30T15:52:12;1.13;;;1.10;;
9117;SDS011;4594;50.994;7.126;2023-04-30T15:54:38;0.90;;;0.90;;
9117;SDS011;4594;50.994;7.126;2023-04-30T15:57:04;1.00;;;1.00;;
9117;SDS011;4594;50.994;7.126;2023-04-30T15:59:30;1.20;;;1.20;;
9117;SDS011;4594;50.994;7.126;2023-04-30T16:01:55;1.00;;;1.00;;
9117;SDS011;4594;50.994;7.126;2023-04-30T16:04:21;1.37;;;1.00;;
9117;SDS011;4594;50.994;7.126;2023-04-30T16:06:47;0.97;;;0.97;;
9117;SDS011;4594;50.994;7.126;2023-04-30T16:09:13;1.10;;;1.10;;
9117;SDS011;4594;50.994;7.126;2023-04-30T16:11:41;1.10;;;1.10;;
9117;SDS011;4594;50.994;7.126;2023-04-30T16:14:07;1.00;;;1.00;;